createdAt,value
2019-03-10T00:00:12.425Z,75.55
2019-03-10T00:05:15.120Z,76.05
2019-03-10T00:10:17.824Z,75.97
2019-03-10T00:15:20.646Z,76.27
2019-03-10T00:20:23.351Z,76.30
2019-03-10T00:25:26.083Z,76.04
2019-03-10T00:30:28.822Z,76.10
2019-03-10T00:35:31.576Z,76.11
2019-03-10T00:41:44.443Z,76.24
2019-03-10T00:47:42.660Z,75.85
2019-03-10T00:53:01.071Z,75.68
2019-03-10T00:58:03.770Z,75.66
2019-03-10T01:03:06.479Z,75.25
2019-03-10T01:08:09.182Z,74.62
2019-03-10T01:13:11.899Z,74.39
2019-03-10T01:18:15.818Z,74.14
2019-03-10T01:23:18.533Z,74.09
2019-03-10T01:28:21.229Z,74.17
2019-03-10T01:34:09.666Z,74.39
2019-03-10T01:39:12.393Z,74.43
2019-03-10T01:44:15.143Z,74.86
2019-03-10T01:49:17.885Z,74.82
2019-03-10T01:54:20.872Z,74.71
2019-03-10T01:59:23.711Z,74.70
2019-03-10T02:04:26.422Z,74.74
2019-03-10T02:09:29.163Z,74.33
2019-03-10T02:14:31.875Z,74.15
2019-03-10T02:19:34.691Z,74.03
2019-03-10T02:24:37.393Z,73.79
2019-03-10T02:29:40.087Z,73.58
2019-03-10T02:34:42.793Z,73.51
2019-03-10T02:39:45.511Z,73.16
2019-03-10T02:44:48.249Z,72.65
2019-03-10T02:49:51.003Z,72.71
2019-03-10T02:54:53.713Z,72.55
2019-03-10T02:59:56.407Z,72.08
2019-03-10T03:04:59.103Z,72.19
2019-03-10T03:10:01.804Z,72.12
2019-03-10T03:15:04.829Z,71.91
2019-03-10T03:20:09.254Z,71.86
2019-03-10T03:25:12.157Z,71.62
2019-03-10T03:30:15.169Z,71.46
2019-03-10T03:36:15.788Z,71.59
2019-03-10T03:41:19.557Z,71.58
2019-03-10T03:46:22.247Z,71.74
2019-03-10T03:51:24.935Z,71.71
2019-03-10T03:56:27.638Z,71.71
2019-03-10T04:01:43.019Z,71.97
2019-03-10T04:06:45.770Z,72.23
2019-03-10T04:11:48.459Z,72.53
2019-03-10T04:16:51.201Z,72.45
2019-03-10T04:21:54.203Z,72.43
2019-03-10T04:26:56.877Z,72.53
2019-03-10T04:31:59.571Z,72.52
2019-03-10T04:37:02.270Z,72.61
2019-03-10T04:42:04.989Z,72.32
2019-03-10T04:47:07.677Z,72.35
2019-03-10T04:52:10.373Z,72.20
2019-03-10T04:57:16.486Z,72.35
2019-03-10T05:02:20.512Z,72.21
2019-03-10T05:07:23.252Z,71.90
2019-03-10T05:12:26.054Z,71.75
2019-03-10T05:17:28.959Z,71.67
2019-03-10T05:22:31.671Z,71.49
2019-03-10T05:27:34.349Z,71.63
2019-03-10T05:32:37.046Z,71.63
2019-03-10T05:37:39.850Z,71.64
2019-03-10T05:42:42.594Z,71.81
2019-03-10T05:47:45.350Z,71.69
2019-03-10T05:52:48.046Z,71.53
2019-03-10T05:57:50.760Z,71.50
2019-03-10T06:02:53.454Z,71.51
2019-03-10T06:07:56.142Z,71.31
2019-03-10T06:12:58.950Z,71.22
2019-03-10T06:18:12.784Z,71.12
2019-03-10T06:23:06.295Z,70.87
2019-03-10T06:28:08.998Z,71.18
2019-03-10T06:33:11.709Z,71.52
2019-03-10T06:38:14.593Z,71.43
2019-03-10T06:43:17.279Z,71.61
2019-03-10T06:48:19.980Z,71.54
2019-03-10T06:53:22.667Z,71.83
2019-03-10T06:58:25.359Z,72.49
2019-03-10T07:03:28.051Z,72.56
2019-03-10T07:08:32.554Z,72.60
2019-03-10T07:13:35.350Z,73.22
2019-03-10T07:18:38.204Z,74.05
2019-03-10T07:23:40.917Z,74.65
2019-03-10T07:29:09.078Z,74.78
2019-03-10T07:34:37.434Z,74.27
2019-03-10T07:40:00.082Z,73.94
2019-03-10T07:45:13.844Z,73.96
2019-03-10T07:50:47.776Z,73.86
2019-03-10T07:56:16.627Z,74.32
2019-03-10T08:01:51.097Z,74.82
2019-03-10T08:07:19.969Z,75.41
2019-03-10T08:12:41.972Z,75.46
2019-03-10T08:17:50.541Z,75.77
2019-03-10T08:23:22.001Z,75.67
2019-03-10T08:28:53.690Z,76.08
2019-03-10T08:34:10.639Z,76.47
2019-03-10T08:39:24.352Z,76.62
2019-03-10T08:44:42.078Z,76.98
2019-03-10T08:49:52.467Z,76.85
2019-03-10T08:55:02.966Z,76.30
2019-03-10T09:00:22.680Z,75.84
2019-03-10T09:05:37.726Z,75.34
2019-03-10T09:10:53.816Z,75.86
2019-03-10T09:16:25.299Z,76.53
2019-03-10T09:21:47.614Z,76.36
2019-03-10T09:27:08.791Z,76.26
2019-03-10T09:32:24.791Z,76.34
2019-03-10T09:37:33.682Z,76.11
2019-03-10T09:42:54.499Z,75.41
2019-03-10T09:48:18.038Z,74.89
2019-03-10T09:53:30.228Z,75.02
2019-03-10T09:58:52.553Z,74.91
2019-03-10T10:04:14.886Z,75.78
2019-03-10T10:09:42.920Z,76.08
2019-03-10T10:15:03.768Z,76.13
2019-03-10T10:20:19.999Z,76.43
2019-03-10T10:25:27.941Z,77.43
2019-03-10T10:30:53.140Z,77.78
2019-03-10T10:36:17.747Z,77.64
2019-03-10T10:41:37.211Z,77.34
2019-03-10T10:46:59.529Z,77.27
2019-03-10T10:52:16.555Z,77.19
2019-03-10T10:57:26.940Z,78.00
2019-03-10T11:02:58.167Z,79.11
2019-03-10T11:08:07.323Z,78.90
2019-03-10T11:13:44.799Z,79.06
2019-03-10T11:19:04.330Z,79.91
2019-03-10T11:24:11.960Z,79.58
2019-03-10T11:29:30.438Z,79.53
2019-03-10T11:34:51.591Z,79.62
2019-03-10T11:40:13.951Z,77.54
2019-03-10T11:45:45.408Z,77.79
2019-03-10T11:51:14.219Z,78.67
2019-03-10T11:56:23.524Z,79.31
2019-03-10T12:01:48.701Z,79.69
2019-03-10T12:07:20.272Z,79.87
2019-03-10T12:12:23.139Z,79.96
2019-03-10T12:17:25.828Z,80.35
2019-03-10T12:22:28.735Z,80.33
2019-03-10T12:27:31.422Z,81.31
2019-03-10T12:32:36.304Z,81.63
2019-03-10T12:37:41.852Z,81.74
2019-03-10T12:42:45.839Z,81.63
2019-03-10T12:47:49.958Z,82.47
2019-03-10T12:52:53.705Z,82.84
2019-03-10T12:57:58.922Z,82.84
2019-03-10T13:03:02.704Z,82.50
2019-03-10T13:08:06.230Z,83.29
2019-03-10T13:13:10.302Z,84.10
2019-03-10T13:18:14.045Z,84.64
2019-03-10T13:23:16.821Z,84.94
2019-03-10T13:28:19.523Z,85.19
2019-03-10T13:33:25.440Z,85.62
2019-03-10T13:38:28.307Z,85.58
2019-03-10T13:43:30.998Z,85.00
2019-03-10T13:48:33.681Z,85.41
2019-03-10T13:53:36.378Z,85.66
2019-03-10T13:58:39.085Z,85.58
2019-03-10T14:03:41.773Z,84.92
2019-03-10T14:08:44.463Z,84.31
2019-03-10T14:13:47.187Z,85.18
2019-03-10T14:18:49.873Z,85.40
2019-03-10T14:23:52.574Z,85.79
2019-03-10T14:28:55.299Z,85.55
2019-03-10T14:33:57.996Z,86.06
2019-03-10T14:39:01.149Z,87.39
2019-03-10T14:44:04.124Z,86.60
2019-03-10T14:49:06.813Z,86.11
2019-03-10T14:54:09.529Z,85.20
2019-03-10T14:59:12.225Z,85.32
2019-03-10T15:04:14.912Z,86.39
2019-03-10T15:09:17.604Z,86.52
2019-03-10T15:14:20.296Z,86.47
2019-03-10T15:19:22.980Z,86.84
2019-03-10T15:24:25.662Z,87.03
2019-03-10T15:29:28.351Z,86.04
2019-03-10T15:34:31.050Z,86.40
2019-03-10T15:39:33.747Z,86.88
2019-03-10T15:44:36.458Z,86.24
2019-03-10T15:49:39.154Z,86.57
2019-03-10T15:54:41.836Z,85.82
2019-03-10T15:59:44.739Z,85.87
2019-03-10T16:04:47.439Z,85.09
2019-03-10T16:09:50.417Z,84.38
2019-03-10T16:14:53.170Z,86.01
2019-03-10T16:19:56.386Z,86.04
2019-03-10T16:24:59.528Z,86.03
2019-03-10T16:30:02.346Z,87.04
2019-03-10T16:35:06.957Z,87.88
2019-03-10T16:40:11.910Z,87.39
2019-03-10T16:45:17.282Z,87.14
2019-03-10T16:50:20.097Z,87.39
2019-03-10T16:55:22.803Z,87.89
2019-03-10T17:00:25.551Z,88.41
2019-03-10T17:05:28.302Z,88.88
2019-03-10T17:10:31.071Z,88.32
2019-03-10T17:15:33.779Z,88.63
2019-03-10T17:20:36.514Z,88.56
2019-03-10T17:25:39.285Z,88.96
2019-03-10T17:30:42.007Z,89.15
2019-03-10T17:35:44.699Z,89.13
2019-03-10T17:40:47.458Z,89.36
2019-03-10T17:45:50.153Z,89.44
2019-03-10T17:50:52.892Z,89.96
2019-03-10T17:55:55.581Z,89.92
2019-03-10T18:00:58.318Z,89.50
2019-03-10T18:06:01.004Z,89.29
2019-03-10T18:11:03.757Z,88.87
2019-03-10T18:16:06.686Z,88.64
2019-03-10T18:21:09.551Z,88.38
2019-03-10T18:26:12.256Z,88.33
